sensor_id;sensor_type;location;lat;lon;timestamp;P1;durP1;ratioP1;P2;durP2;ratioP2
18726;SDS011;9492;51.888;5.186;2022-11-02T00:00:49;8.07;;;2.40;;
18726;SDS011;9492;51.888;5.186;2022-11-02T00:03:16;8.50;;;2.40;;
18726;SDS011;9492;51.888;5.186;2022-11-02T00:05:42;5.73;;;1.60;;
18726;SDS011;9492;51.888;5.186;2022-11-02T00:08:08;14.53;;;1.77;;
18726;SDS011;9492;51.888;5.186;2022-11-02T00:10:34;6.30;;;1.73;;
18726;SDS011;9492;51.888;5.186;2022-11-02T00:13:00;5.43;;;1.70;;
18726;SDS011;9492;51.888;5.186;2022-11-02T00:15:27;6.87;;;1.90;;
18726;SDS011;9492;51.888;5.186;2022-11-02T00:17:55;5.40;;;1.60;;
18726;SDS011;9492;51.888;5.186;2022-11-02T00:20:23;5.93;;;1.73;;
18726;SDS011;9492;51.888;5.186;2022-11-02T00:22:50;6.93;;;1.87;;
18726;SDS011;9492;51.888;5.186;2022-11-02T00:25:19;6.13;;;2.10;;
18726;SDS011;9492;51.888;5.186;2022-11-02T00:27:46;8.63;;;2.30;;
18726;SDS011;9492;51.888;5.186;2022-11-02T00:30:12;7.33;;;1.83;;
18726;SDS011;9492;51.888;5.186;2022-11-02T00:32:38;5.90;;;1.53;;
18726;SDS011;9492;51.888;5.186;2022-11-02T00:35:04;3.00;;;1.63;;
18726;SDS011;9492;51.888;5.186;2022-11-02T00:37:30;5.23;;;1.30;;
18726;SDS011;9492;51.888;5.186;2022-11-02T00:39:56;6.63;;;1.60;;
18726;SDS011;9492;51.888;5.186;2022-11-02T00:42:22;4.47;;;1.30;;
18726;SDS011;9492;51.888;5.186;2022-11-02T00:44:48;5.30;;;1.80;;
18726;SDS011;9492;51.888;5.186;2022-11-02T00:47:14;8.13;;;1.73;;
18726;SDS011;9492;51.888;5.186;2022-11-02T00:49:40;5.83;;;1.53;;
18726;SDS011;9492;51.888;5.186;2022-11-02T00:52:06;3.93;;;1.43;;
18726;SDS011;9492;51.888;5.186;2022-11-02T00:54:32;6.77;;;2.57;;
18726;SDS011;9492;51.888;5.186;2022-11-02T00:56:58;6.10;;;2.13;;
18726;SDS011;9492;51.888;5.186;2022-11-02T00:59:24;8.27;;;2.00;;
18726;SDS011;9492;51.888;5.186;2022-11-02T01:01:50;8.20;;;1.73;;
18726;SDS011;9492;51.888;5.186;2022-11-02T01:04:16;3.60;;;1.37;;
18726;SDS011;9492;51.888;5.186;2022-11-02T01:06:42;2.67;;;0.70;;
18726;SDS011;9492;51.888;5.186;2022-11-02T01:09:09;2.60;;;0.80;;
18726;SDS011;9492;51.888;5.186;2022-11-02T01:11:35;4.10;;;1.00;;
18726;SDS011;9492;51.888;5.186;2022-11-02T01:14:01;1.50;;;0.77;;
18726;SDS011;9492;51.888;5.186;2022-11-02T01:16:27;2.37;;;0.87;;
18726;SDS011;9492;51.888;5.186;2022-11-02T01:18:53;3.03;;;0.80;;
18726;SDS011;9492;51.888;5.186;2022-11-02T01:21:20;2.30;;;0.67;;
18726;SDS011;9492;51.888;5.186;2022-11-02T01:23:46;1.27;;;0.83;;
18726;SDS011;9492;51.888;5.186;2022-11-02T01:26:12;2.43;;;0.97;;
18726;SDS011;9492;51.888;5.186;2022-11-02T01:28:38;2.00;;;0.93;;
18726;SDS011;9492;51.888;5.186;2022-11-02T01:31:05;3.67;;;0.73;;
18726;SDS011;9492;51.888;5.186;2022-11-02T01:33:32;2.23;;;0.70;;
18726;SDS011;9492;51.888;5.186;2022-11-02T01:36:00;4.00;;;1.00;;
18726;SDS011;9492;51.888;5.186;2022-11-02T01:38:27;5.67;;;1.17;;
18726;SDS011;9492;51.888;5.186;2022-11-02T01:40:53;3.23;;;1.03;;
18726;SDS011;9492;51.888;5.186;2022-11-02T01:43:23;4.73;;;1.70;;
18726;SDS011;9492;51.888;5.186;2022-11-02T01:45:50;6.83;;;1.77;;
18726;SDS011;9492;51.888;5.186;2022-11-02T01:48:18;5.07;;;1.00;;
18726;SDS011;9492;51.888;5.186;2022-11-02T01:50:45;5.60;;;1.37;;
18726;SDS011;9492;51.888;5.186;2022-11-02T01:53:11;5.73;;;1.50;;
18726;SDS011;9492;51.888;5.186;2022-11-02T01:55:37;6.43;;;1.57;;
18726;SDS011;9492;51.888;5.186;2022-11-02T01:58:06;5.30;;;1.00;;
18726;SDS011;9492;51.888;5.186;2022-11-02T02:00:33;4.87;;;1.40;;
18726;SDS011;9492;51.888;5.186;2022-11-02T02:05:25;1.70;;;1.20;;
18726;SDS011;9492;51.888;5.186;2022-11-02T02:07:52;4.47;;;1.30;;
18726;SDS011;9492;51.888;5.186;2022-11-02T02:10:19;3.90;;;1.40;;
18726;SDS011;9492;51.888;5.186;2022-11-02T02:12:45;7.40;;;1.57;;
18726;SDS011;9492;51.888;5.186;2022-11-02T02:15:11;1.20;;;1.10;;
18726;SDS011;9492;51.888;5.186;2022-11-02T02:20:50;3.53;;;1.20;;
18726;SDS011;9492;51.888;5.186;2022-11-02T02:33:42;5.87;;;1.33;;
18726;SDS011;9492;51.888;5.186;2022-11-02T02:36:09;2.97;;;1.23;;
18726;SDS011;9492;51.888;5.186;2022-11-02T02:38:41;6.80;;;1.53;;
18726;SDS011;9492;51.888;5.186;2022-11-02T02:41:12;4.37;;;1.67;;
18726;SDS011;9492;51.888;5.186;2022-11-02T02:43:40;5.27;;;1.30;;
18726;SDS011;9492;51.888;5.186;2022-11-02T02:46:07;4.70;;;1.17;;
18726;SDS011;9492;51.888;5.186;2022-11-02T02:48:36;5.23;;;1.60;;
18726;SDS011;9492;51.888;5.186;2022-11-02T02:51:08;7.37;;;2.27;;
18726;SDS011;9492;51.888;5.186;2022-11-02T02:53:37;5.80;;;1.70;;
18726;SDS011;9492;51.888;5.186;2022-11-02T02:56:05;6.00;;;1.67;;
18726;SDS011;9492;51.888;5.186;2022-11-02T02:58:35;7.67;;;1.73;;
18726;SDS011;9492;51.888;5.186;2022-11-02T03:01:02;3.67;;;1.60;;
18726;SDS011;9492;51.888;5.186;2022-11-02T03:03:29;6.23;;;1.70;;
18726;SDS011;9492;51.888;5.186;2022-11-02T03:06:03;5.83;;;1.90;;
18726;SDS011;9492;51.888;5.186;2022-11-02T03:08:30;6.60;;;1.90;;
18726;SDS011;9492;51.888;5.186;2022-11-02T03:11:01;9.00;;;1.70;;
18726;SDS011;9492;51.888;5.186;2022-11-02T03:13:39;9.03;;;2.60;;
18726;SDS011;9492;51.888;5.186;2022-11-02T03:16:15;5.97;;;1.47;;
18726;SDS011;9492;51.888;5.186;2022-11-02T03:18:52;10.00;;;2.37;;
18726;SDS011;9492;51.888;5.186;2022-11-02T03:21:27;6.90;;;1.97;;
18726;SDS011;9492;51.888;5.186;2022-11-02T03:23:54;7.33;;;2.07;;
18726;SDS011;9492;51.888;5.186;2022-11-02T03:29:09;7.93;;;2.00;;
18726;SDS011;9492;51.888;5.186;2022-11-02T03:31:45;9.17;;;2.20;;
18726;SDS011;9492;51.888;5.186;2022-11-02T03:36:47;6.13;;;1.80;;
18726;SDS011;9492;51.888;5.186;2022-11-02T03:39:15;9.67;;;2.30;;
18726;SDS011;9492;51.888;5.186;2022-11-02T03:41:43;8.17;;;1.97;;
18726;SDS011;9492;51.888;5.186;2022-11-02T03:44:10;5.40;;;2.13;;
18726;SDS011;9492;51.888;5.186;2022-11-02T03:46:39;11.00;;;2.13;;
18726;SDS011;9492;51.888;5.186;2022-11-02T03:49:06;8.63;;;1.90;;
18726;SDS011;9492;51.888;5.186;2022-11-02T03:51:36;13.73;;;2.40;;
18726;SDS011;9492;51.888;5.186;2022-11-02T03:54:14;8.03;;;2.40;;
18726;SDS011;9492;51.888;5.186;2022-11-02T03:56:43;10.30;;;2.80;;
18726;SDS011;9492;51.888;5.186;2022-11-02T03:59:10;9.90;;;2.17;;
18726;SDS011;9492;51.888;5.186;2022-11-02T04:01:41;12.30;;;2.10;;
18726;SDS011;9492;51.888;5.186;2022-11-02T04:04:07;9.83;;;2.23;;
18726;SDS011;9492;51.888;5.186;2022-11-02T04:06:33;9.70;;;2.10;;
18726;SDS011;9492;51.888;5.186;2022-11-02T04:09:03;9.43;;;2.10;;
18726;SDS011;9492;51.888;5.186;2022-11-02T04:11:30;9.43;;;2.00;;
18726;SDS011;9492;51.888;5.186;2022-11-02T04:14:15;11.17;;;2.90;;
18726;SDS011;9492;51.888;5.186;2022-11-02T04:16:59;8.07;;;2.10;;
18726;SDS011;9492;51.888;5.186;2022-11-02T04:19:44;9.83;;;2.23;;
18726;SDS011;9492;51.888;5.186;2022-11-02T04:22:10;7.17;;;2.47;;
18726;SDS011;9492;51.888;5.186;2022-11-02T04:24:55;11.27;;;2.40;;
18726;SDS011;9492;51.888;5.186;2022-11-02T04:27:39;7.77;;;2.33;;
18726;SDS011;9492;51.888;5.186;2022-11-02T04:30:05;7.57;;;1.80;;
18726;SDS011;9492;51.888;5.186;2022-11-02T04:32:38;6.43;;;2.17;;
18726;SDS011;9492;51.888;5.186;2022-11-02T04:35:23;10.00;;;1.97;;
18726;SDS011;9492;51.888;5.186;2022-11-02T04:37:49;14.03;;;2.43;;
18726;SDS011;9492;51.888;5.186;2022-11-02T04:40:33;11.53;;;2.40;;
18726;SDS011;9492;51.888;5.186;2022-11-02T04:42:59;8.27;;;2.27;;
18726;SDS011;9492;51.888;5.186;2022-11-02T04:45:25;10.87;;;3.07;;
18726;SDS011;9492;51.888;5.186;2022-11-02T04:47:51;7.50;;;2.20;;
18726;SDS011;9492;51.888;5.186;2022-11-02T04:50:18;7.03;;;2.13;;
18726;SDS011;9492;51.888;5.186;2022-11-02T04:52:44;9.10;;;2.80;;
18726;SDS011;9492;51.888;5.186;2022-11-02T04:55:10;10.17;;;2.90;;
18726;SDS011;9492;51.888;5.186;2022-11-02T04:57:36;9.53;;;2.23;;
18726;SDS011;9492;51.888;5.186;2022-11-02T05:00:02;5.57;;;2.13;;
18726;SDS011;9492;51.888;5.186;2022-11-02T05:02:28;9.20;;;1.93;;
18726;SDS011;9492;51.888;5.186;2022-11-02T05:04:54;9.70;;;2.30;;
18726;SDS011;9492;51.888;5.186;2022-11-02T05:07:20;7.80;;;2.33;;
18726;SDS011;9492;51.888;5.186;2022-11-02T05:09:46;6.27;;;2.40;;
18726;SDS011;9492;51.888;5.186;2022-11-02T05:12:12;10.60;;;2.77;;
18726;SDS011;9492;51.888;5.186;2022-11-02T05:14:38;7.23;;;2.33;;
18726;SDS011;9492;51.888;5.186;2022-11-02T05:17:04;7.70;;;2.07;;
18726;SDS011;9492;51.888;5.186;2022-11-02T05:19:30;17.27;;;3.30;;
18726;SDS011;9492;51.888;5.186;2022-11-02T05:21:56;7.60;;;2.50;;
18726;SDS011;9492;51.888;5.186;2022-11-02T05:24:22;9.03;;;2.90;;
18726;SDS011;9492;51.888;5.186;2022-11-02T05:26:48;11.43;;;2.43;;
18726;SDS011;9492;51.888;5.186;2022-11-02T05:29:14;14.70;;;2.93;;
18726;SDS011;9492;51.888;5.186;2022-11-02T05:31:40;8.53;;;2.40;;
18726;SDS011;9492;51.888;5.186;2022-11-02T05:34:06;8.57;;;2.30;;
18726;SDS011;9492;51.888;5.186;2022-11-02T05:36:32;6.70;;;2.00;;
18726;SDS011;9492;51.888;5.186;2022-11-02T05:38:58;14.10;;;2.77;;
18726;SDS011;9492;51.888;5.186;2022-11-02T05:41:24;9.83;;;2.07;;
18726;SDS011;9492;51.888;5.186;2022-11-02T05:43:50;6.83;;;2.20;;
18726;SDS011;9492;51.888;5.186;2022-11-02T05:46:16;10.00;;;2.27;;
18726;SDS011;9492;51.888;5.186;2022-11-02T05:48:42;13.67;;;2.90;;
18726;SDS011;9492;51.888;5.186;2022-11-02T05:51:08;10.40;;;2.10;;
18726;SDS011;9492;51.888;5.186;2022-11-02T05:53:34;5.67;;;1.57;;
18726;SDS011;9492;51.888;5.186;2022-11-02T05:56:03;10.70;;;2.23;;
18726;SDS011;9492;51.888;5.186;2022-11-02T05:58:30;8.70;;;2.50;;
18726;SDS011;9492;51.888;5.186;2022-11-02T06:00:59;9.20;;;2.00;;
18726;SDS011;9492;51.888;5.186;2022-11-02T06:03:26;8.87;;;2.30;;
18726;SDS011;9492;51.888;5.186;2022-11-02T06:05:59;11.63;;;2.33;;
18726;SDS011;9492;51.888;5.186;2022-11-02T06:08:25;10.30;;;2.10;;
18726;SDS011;9492;51.888;5.186;2022-11-02T06:10:51;11.00;;;2.47;;
18726;SDS011;9492;51.888;5.186;2022-11-02T06:13:17;12.03;;;2.40;;
18726;SDS011;9492;51.888;5.186;2022-11-02T06:15:43;7.67;;;1.90;;
18726;SDS011;9492;51.888;5.186;2022-11-02T06:18:09;7.97;;;1.80;;
18726;SDS011;9492;51.888;5.186;2022-11-02T06:20:35;8.57;;;2.00;;
18726;SDS011;9492;51.888;5.186;2022-11-02T06:23:01;11.57;;;3.00;;
18726;SDS011;9492;51.888;5.186;2022-11-02T06:25:27;7.77;;;2.00;;
18726;SDS011;9492;51.888;5.186;2022-11-02T06:27:54;8.83;;;2.27;;
18726;SDS011;9492;51.888;5.186;2022-11-02T06:30:24;4.40;;;1.77;;
18726;SDS011;9492;51.888;5.186;2022-11-02T06:32:51;7.30;;;1.97;;
18726;SDS011;9492;51.888;5.186;2022-11-02T06:35:18;7.77;;;1.77;;
18726;SDS011;9492;51.888;5.186;2022-11-02T06:37:44;8.10;;;2.17;;
18726;SDS011;9492;51.888;5.186;2022-11-02T06:40:11;9.50;;;2.47;;
18726;SDS011;9492;51.888;5.186;2022-11-02T06:42:37;10.73;;;2.07;;
18726;SDS011;9492;51.888;5.186;2022-11-02T06:45:03;11.23;;;2.10;;
18726;SDS011;9492;51.888;5.186;2022-11-02T06:47:38;8.50;;;2.23;;
18726;SDS011;9492;51.888;5.186;2022-11-02T06:50:05;7.87;;;1.73;;
18726;SDS011;9492;51.888;5.186;2022-11-02T06:52:31;8.33;;;2.17;;
18726;SDS011;9492;51.888;5.186;2022-11-02T06:54:57;8.80;;;2.10;;
18726;SDS011;9492;51.888;5.186;2022-11-02T06:57:23;10.23;;;3.27;;
18726;SDS011;9492;51.888;5.186;2022-11-02T06:59:49;9.37;;;1.53;;
18726;SDS011;9492;51.888;5.186;2022-11-02T07:02:15;9.80;;;2.10;;
18726;SDS011;9492;51.888;5.186;2022-11-02T07:04:41;11.40;;;2.23;;
18726;SDS011;9492;51.888;5.186;2022-11-02T07:07:07;10.13;;;2.53;;
18726;SDS011;9492;51.888;5.186;2022-11-02T07:09:33;11.37;;;2.10;;
18726;SDS011;9492;51.888;5.186;2022-11-02T07:11:59;8.43;;;1.90;;
18726;SDS011;9492;51.888;5.186;2022-11-02T07:14:25;8.40;;;2.13;;
18726;SDS011;9492;51.888;5.186;2022-11-02T07:16:51;8.30;;;2.13;;
18726;SDS011;9492;51.888;5.186;2022-11-02T07:19:17;6.73;;;1.67;;
18726;SDS011;9492;51.888;5.186;2022-11-02T07:21:43;8.63;;;2.07;;
18726;SDS011;9492;51.888;5.186;2022-11-02T07:24:09;9.37;;;2.07;;
18726;SDS011;9492;51.888;5.186;2022-11-02T07:26:35;10.07;;;2.10;;
18726;SDS011;9492;51.888;5.186;2022-11-02T07:29:01;9.70;;;2.03;;
18726;SDS011;9492;51.888;5.186;2022-11-02T07:31:27;4.83;;;2.00;;
18726;SDS011;9492;51.888;5.186;2022-11-02T07:33:53;6.93;;;2.03;;
18726;SDS011;9492;51.888;5.186;2022-11-02T07:36:19;3.70;;;1.40;;
18726;SDS011;9492;51.888;5.186;2022-11-02T07:38:45;5.53;;;1.70;;
18726;SDS011;9492;51.888;5.186;2022-11-02T07:41:11;8.50;;;2.37;;
18726;SDS011;9492;51.888;5.186;2022-11-02T07:43:37;7.53;;;2.40;;
18726;SDS011;9492;51.888;5.186;2022-11-02T07:46:03;7.57;;;2.00;;
18726;SDS011;9492;51.888;5.186;2022-11-02T07:48:30;6.93;;;2.03;;
18726;SDS011;9492;51.888;5.186;2022-11-02T07:50:59;5.00;;;2.00;;
18726;SDS011;9492;51.888;5.186;2022-11-02T07:53:25;7.07;;;2.10;;
18726;SDS011;9492;51.888;5.186;2022-11-02T07:55:51;9.43;;;2.60;;
18726;SDS011;9492;51.888;5.186;2022-11-02T07:58:17;6.67;;;1.70;;
18726;SDS011;9492;51.888;5.186;2022-11-02T08:00:43;4.40;;;1.67;;
18726;SDS011;9492;51.888;5.186;2022-11-02T08:03:09;7.30;;;1.73;;
18726;SDS011;9492;51.888;5.186;2022-11-02T08:05:37;7.63;;;1.93;;
18726;SDS011;9492;51.888;5.186;2022-11-02T08:08:04;7.77;;;2.20;;
18726;SDS011;9492;51.888;5.186;2022-11-02T08:10:31;10.23;;;2.43;;
18726;SDS011;9492;51.888;5.186;2022-11-02T08:12:57;5.63;;;1.87;;
18726;SDS011;9492;51.888;5.186;2022-11-02T08:15:24;8.33;;;2.50;;
18726;SDS011;9492;51.888;5.186;2022-11-02T08:20:26;8.57;;;1.93;;
18726;SDS011;9492;51.888;5.186;2022-11-02T08:22:52;6.83;;;2.57;;
18726;SDS011;9492;51.888;5.186;2022-11-02T08:25:18;7.40;;;2.40;;
18726;SDS011;9492;51.888;5.186;2022-11-02T08:27:44;5.93;;;2.60;;
18726;SDS011;9492;51.888;5.186;2022-11-02T08:30:10;5.50;;;2.50;;
18726;SDS011;9492;51.888;5.186;2022-11-02T08:32:37;7.87;;;1.93;;
18726;SDS011;9492;51.888;5.186;2022-11-02T08:35:03;9.23;;;2.53;;
18726;SDS011;9492;51.888;5.186;2022-11-02T08:37:29;6.67;;;2.00;;
18726;SDS011;9492;51.888;5.186;2022-11-02T08:39:55;6.97;;;2.43;;
18726;SDS011;9492;51.888;5.186;2022-11-02T08:42:21;7.30;;;2.57;;
18726;SDS011;9492;51.888;5.186;2022-11-02T08:44:47;7.97;;;1.90;;
18726;SDS011;9492;51.888;5.186;2022-11-02T08:47:14;8.73;;;2.30;;
18726;SDS011;9492;51.888;5.186;2022-11-02T08:49:41;7.00;;;2.13;;
18726;SDS011;9492;51.888;5.186;2022-11-02T08:52:07;6.10;;;2.23;;
18726;SDS011;9492;51.888;5.186;2022-11-02T08:54:33;6.73;;;2.07;;
18726;SDS011;9492;51.888;5.186;2022-11-02T08:56:59;5.43;;;2.63;;
18726;SDS011;9492;51.888;5.186;2022-11-02T08:59:25;9.03;;;1.90;;
18726;SDS011;9492;51.888;5.186;2022-11-02T09:01:51;6.87;;;2.40;;
18726;SDS011;9492;51.888;5.186;2022-11-02T09:04:17;6.90;;;1.80;;
18726;SDS011;9492;51.888;5.186;2022-11-02T09:06:43;7.70;;;2.60;;
18726;SDS011;9492;51.888;5.186;2022-11-02T09:09:09;4.30;;;1.90;;
18726;SDS011;9492;51.888;5.186;2022-11-02T09:11:35;8.23;;;2.40;;
18726;SDS011;9492;51.888;5.186;2022-11-02T09:14:01;5.83;;;2.23;;
18726;SDS011;9492;51.888;5.186;2022-11-02T09:16:27;6.70;;;2.17;;
18726;SDS011;9492;51.888;5.186;2022-11-02T09:18:53;8.43;;;2.13;;
18726;SDS011;9492;51.888;5.186;2022-11-02T09:21:19;11.23;;;2.83;;
18726;SDS011;9492;51.888;5.186;2022-11-02T09:23:45;11.47;;;2.30;;
18726;SDS011;9492;51.888;5.186;2022-11-02T09:26:13;9.57;;;2.27;;
18726;SDS011;9492;51.888;5.186;2022-11-02T09:28:39;4.87;;;1.70;;
18726;SDS011;9492;51.888;5.186;2022-11-02T09:31:05;6.73;;;1.93;;
18726;SDS011;9492;51.888;5.186;2022-11-02T09:33:31;6.07;;;2.13;;
18726;SDS011;9492;51.888;5.186;2022-11-02T09:36:03;4.97;;;2.03;;
18726;SDS011;9492;51.888;5.186;2022-11-02T09:38:29;5.60;;;2.30;;
18726;SDS011;9492;51.888;5.186;2022-11-02T09:45:55;7.13;;;2.00;;
18726;SDS011;9492;51.888;5.186;2022-11-02T09:48:26;4.90;;;1.77;;
18726;SDS011;9492;51.888;5.186;2022-11-02T09:53:26;5.40;;;1.77;;
18726;SDS011;9492;51.888;5.186;2022-11-02T09:55:55;6.90;;;2.57;;
18726;SDS011;9492;51.888;5.186;2022-11-02T09:59:23;5.13;;;2.10;;
18726;SDS011;9492;51.888;5.186;2022-11-02T10:01:22;5.53;;;1.83;;
18726;SDS011;9492;51.888;5.186;2022-11-02T10:06:18;7.17;;;2.17;;
18726;SDS011;9492;51.888;5.186;2022-11-02T10:08:48;7.10;;;2.00;;
18726;SDS011;9492;51.888;5.186;2022-11-02T10:18:36;8.30;;;2.50;;
18726;SDS011;9492;51.888;5.186;2022-11-02T10:21:05;9.30;;;2.07;;
18726;SDS011;9492;51.888;5.186;2022-11-02T10:23:40;7.87;;;2.27;;
18726;SDS011;9492;51.888;5.186;2022-11-02T10:26:08;7.63;;;2.10;;
18726;SDS011;9492;51.888;5.186;2022-11-02T10:28:38;10.00;;;2.70;;
18726;SDS011;9492;51.888;5.186;2022-11-02T10:31:13;13.43;;;3.03;;
18726;SDS011;9492;51.888;5.186;2022-11-02T10:33:41;13.33;;;2.60;;
18726;SDS011;9492;51.888;5.186;2022-11-02T10:43:41;7.97;;;2.50;;
18726;SDS011;9492;51.888;5.186;2022-11-02T10:51:14;7.60;;;2.43;;
18726;SDS011;9492;51.888;5.186;2022-11-02T10:53:42;5.90;;;1.93;;
18726;SDS011;9492;51.888;5.186;2022-11-02T10:56:19;6.00;;;2.13;;
18726;SDS011;9492;51.888;5.186;2022-11-02T11:01:25;5.73;;;2.40;;
18726;SDS011;9492;51.888;5.186;2022-11-02T11:06:21;8.00;;;2.47;;
18726;SDS011;9492;51.888;5.186;2022-11-02T11:08:48;7.20;;;2.43;;
18726;SDS011;9492;51.888;5.186;2022-11-02T11:13:58;9.33;;;2.00;;
18726;SDS011;9492;51.888;5.186;2022-11-02T11:16:41;6.43;;;2.00;;
18726;SDS011;9492;51.888;5.186;2022-11-02T11:19:18;4.10;;;1.47;;
18726;SDS011;9492;51.888;5.186;2022-11-02T11:21:45;8.90;;;1.83;;
18726;SDS011;9492;51.888;5.186;2022-11-02T11:24:20;9.50;;;3.03;;
18726;SDS011;9492;51.888;5.186;2022-11-02T11:29:32;8.67;;;2.23;;
18726;SDS011;9492;51.888;5.186;2022-11-02T11:31:58;8.57;;;2.37;;
18726;SDS011;9492;51.888;5.186;2022-11-02T11:34:26;8.83;;;2.20;;
18726;SDS011;9492;51.888;5.186;2022-11-02T11:37:03;9.43;;;2.03;;
18726;SDS011;9492;51.888;5.186;2022-11-02T11:39:29;4.83;;;1.97;;
18726;SDS011;9492;51.888;5.186;2022-11-02T11:41:56;8.00;;;1.90;;
18726;SDS011;9492;51.888;5.186;2022-11-02T11:44:23;9.53;;;2.27;;
18726;SDS011;9492;51.888;5.186;2022-11-02T11:46:52;8.50;;;2.03;;
18726;SDS011;9492;51.888;5.186;2022-11-02T11:49:22;7.23;;;2.13;;
18726;SDS011;9492;51.888;5.186;2022-11-02T11:51:49;10.77;;;1.93;;
18726;SDS011;9492;51.888;5.186;2022-11-02T11:54:24;6.60;;;1.87;;
18726;SDS011;9492;51.888;5.186;2022-11-02T11:56:52;7.27;;;2.10;;
18726;SDS011;9492;51.888;5.186;2022-11-02T12:01:44;6.50;;;1.93;;
18726;SDS011;9492;51.888;5.186;2022-11-02T12:04:10;6.13;;;1.83;;
18726;SDS011;9492;51.888;5.186;2022-11-02T12:09:06;9.47;;;2.67;;
18726;SDS011;9492;51.888;5.186;2022-11-02T12:17:13;9.17;;;2.17;;
18726;SDS011;9492;51.888;5.186;2022-11-02T12:27:31;6.10;;;1.87;;
18726;SDS011;9492;51.888;5.186;2022-11-02T12:29:56;6.63;;;2.07;;
18726;SDS011;9492;51.888;5.186;2022-11-02T12:37:22;10.53;;;2.17;;
18726;SDS011;9492;51.888;5.186;2022-11-02T12:39:56;7.23;;;1.70;;
18726;SDS011;9492;51.888;5.186;2022-11-02T12:42:30;6.50;;;1.83;;
18726;SDS011;9492;51.888;5.186;2022-11-02T12:45:04;4.97;;;1.73;;
18726;SDS011;9492;51.888;5.186;2022-11-02T12:55:58;3.80;;;1.87;;
18726;SDS011;9492;51.888;5.186;2022-11-02T12:58:29;4.87;;;1.80;;
18726;SDS011;9492;51.888;5.186;2022-11-02T13:00:57;7.37;;;2.07;;
18726;SDS011;9492;51.888;5.186;2022-11-02T13:05:54;11.60;;;2.57;;
18726;SDS011;9492;51.888;5.186;2022-11-02T13:08:32;8.70;;;2.40;;
18726;SDS011;9492;51.888;5.186;2022-11-02T13:11:00;6.57;;;2.23;;
18726;SDS011;9492;51.888;5.186;2022-11-02T13:19:19;6.83;;;1.90;;
18726;SDS011;9492;51.888;5.186;2022-11-02T13:21:47;9.00;;;2.10;;
18726;SDS011;9492;51.888;5.186;2022-11-02T13:24:16;9.50;;;2.17;;
18726;SDS011;9492;51.888;5.186;2022-11-02T13:26:44;6.87;;;1.90;;
18726;SDS011;9492;51.888;5.186;2022-11-02T13:31:57;12.20;;;2.70;;
18726;SDS011;9492;51.888;5.186;2022-11-02T13:34:33;7.33;;;1.93;;
18726;SDS011;9492;51.888;5.186;2022-11-02T13:39:45;7.83;;;2.20;;
18726;SDS011;9492;51.888;5.186;2022-11-02T13:50:16;9.03;;;2.33;;
18726;SDS011;9492;51.888;5.186;2022-11-02T13:52:44;9.77;;;2.27;;
18726;SDS011;9492;51.888;5.186;2022-11-02T13:55:16;6.30;;;2.20;;
18726;SDS011;9492;51.888;5.186;2022-11-02T13:57:48;10.27;;;2.33;;
18726;SDS011;9492;51.888;5.186;2022-11-02T14:03:01;11.07;;;2.67;;
18726;SDS011;9492;51.888;5.186;2022-11-02T14:05:31;9.10;;;2.53;;
18726;SDS011;9492;51.888;5.186;2022-11-02T14:07:59;8.87;;;2.30;;
18726;SDS011;9492;51.888;5.186;2022-11-02T14:10:26;10.53;;;2.33;;
18726;SDS011;9492;51.888;5.186;2022-11-02T14:12:52;8.40;;;2.27;;
18726;SDS011;9492;51.888;5.186;2022-11-02T14:20:30;7.43;;;2.23;;
18726;SDS011;9492;51.888;5.186;2022-11-02T14:30:45;7.73;;;2.13;;
18726;SDS011;9492;51.888;5.186;2022-11-02T14:35:59;14.07;;;2.47;;
18726;SDS011;9492;51.888;5.186;2022-11-02T14:38:33;8.80;;;2.83;;
18726;SDS011;9492;51.888;5.186;2022-11-02T14:41:08;12.70;;;2.37;;
18726;SDS011;9492;51.888;5.186;2022-11-02T14:49:04;10.67;;;2.17;;
18726;SDS011;9492;51.888;5.186;2022-11-02T14:51:32;9.47;;;2.23;;
18726;SDS011;9492;51.888;5.186;2022-11-02T14:54:03;10.20;;;2.43;;
18726;SDS011;9492;51.888;5.186;2022-11-02T14:56:44;9.90;;;2.60;;
18726;SDS011;9492;51.888;5.186;2022-11-02T14:59:16;9.30;;;2.77;;
18726;SDS011;9492;51.888;5.186;2022-11-02T15:01:47;9.33;;;2.50;;
18726;SDS011;9492;51.888;5.186;2022-11-02T15:04:14;12.00;;;2.30;;
18726;SDS011;9492;51.888;5.186;2022-11-02T15:06:48;11.30;;;2.43;;
18726;SDS011;9492;51.888;5.186;2022-11-02T15:09:49;8.77;;;1.90;;
18726;SDS011;9492;51.888;5.186;2022-11-02T15:12:18;9.23;;;2.67;;
18726;SDS011;9492;51.888;5.186;2022-11-02T15:19:45;7.47;;;2.20;;
18726;SDS011;9492;51.888;5.186;2022-11-02T15:24:58;12.60;;;2.50;;
18726;SDS011;9492;51.888;5.186;2022-11-02T15:27:26;6.93;;;1.80;;
18726;SDS011;9492;51.888;5.186;2022-11-02T15:29:53;8.97;;;2.00;;
18726;SDS011;9492;51.888;5.186;2022-11-02T15:32:19;9.60;;;2.20;;
18726;SDS011;9492;51.888;5.186;2022-11-02T15:34:47;6.80;;;2.10;;
18726;SDS011;9492;51.888;5.186;2022-11-02T15:37:24;6.40;;;2.13;;
18726;SDS011;9492;51.888;5.186;2022-11-02T15:39:53;9.50;;;2.07;;
18726;SDS011;9492;51.888;5.186;2022-11-02T15:42:35;13.90;;;2.27;;
18726;SDS011;9492;51.888;5.186;2022-11-02T15:47:55;8.40;;;2.33;;
18726;SDS011;9492;51.888;5.186;2022-11-02T15:50:41;8.30;;;2.70;;
18726;SDS011;9492;51.888;5.186;2022-11-02T15:56:13;9.57;;;2.10;;
18726;SDS011;9492;51.888;5.186;2022-11-02T16:01:24;9.17;;;2.20;;
18726;SDS011;9492;51.888;5.186;2022-11-02T16:03:51;10.77;;;2.30;;
18726;SDS011;9492;51.888;5.186;2022-11-02T16:06:28;6.97;;;2.07;;
18726;SDS011;9492;51.888;5.186;2022-11-02T16:08:58;7.00;;;2.00;;
18726;SDS011;9492;51.888;5.186;2022-11-02T16:11:24;8.40;;;2.30;;
18726;SDS011;9492;51.888;5.186;2022-11-02T16:13:51;5.83;;;2.10;;
18726;SDS011;9492;51.888;5.186;2022-11-02T16:16:18;6.03;;;2.27;;
18726;SDS011;9492;51.888;5.186;2022-11-02T16:18:47;11.10;;;2.77;;
18726;SDS011;9492;51.888;5.186;2022-11-02T16:21:15;8.97;;;2.40;;
18726;SDS011;9492;51.888;5.186;2022-11-02T16:23:45;6.63;;;2.10;;
18726;SDS011;9492;51.888;5.186;2022-11-02T16:26:14;6.63;;;2.10;;
18726;SDS011;9492;51.888;5.186;2022-11-02T16:28:45;10.83;;;3.20;;
18726;SDS011;9492;51.888;5.186;2022-11-02T16:31:16;9.50;;;3.23;;
18726;SDS011;9492;51.888;5.186;2022-11-02T16:36:21;13.03;;;2.97;;
18726;SDS011;9492;51.888;5.186;2022-11-02T16:41:17;12.30;;;3.03;;
18726;SDS011;9492;51.888;5.186;2022-11-02T16:43:43;7.03;;;2.33;;
18726;SDS011;9492;51.888;5.186;2022-11-02T16:46:13;9.30;;;2.90;;
18726;SDS011;9492;51.888;5.186;2022-11-02T16:48:41;6.20;;;2.17;;
18726;SDS011;9492;51.888;5.186;2022-11-02T16:51:26;10.63;;;2.30;;
18726;SDS011;9492;51.888;5.186;2022-11-02T16:53:52;7.73;;;2.17;;
18726;SDS011;9492;51.888;5.186;2022-11-02T16:58:51;5.37;;;2.27;;
18726;SDS011;9492;51.888;5.186;2022-11-02T17:01:23;5.47;;;2.00;;
18726;SDS011;9492;51.888;5.186;2022-11-02T17:03:49;11.83;;;3.37;;
18726;SDS011;9492;51.888;5.186;2022-11-02T17:06:18;7.13;;;2.57;;
18726;SDS011;9492;51.888;5.186;2022-11-02T17:08:49;10.30;;;2.60;;
18726;SDS011;9492;51.888;5.186;2022-11-02T17:11:15;8.40;;;2.43;;
18726;SDS011;9492;51.888;5.186;2022-11-02T17:13:47;8.53;;;2.23;;
18726;SDS011;9492;51.888;5.186;2022-11-02T17:16:14;8.33;;;2.40;;
18726;SDS011;9492;51.888;5.186;2022-11-02T17:18:40;8.47;;;3.20;;
18726;SDS011;9492;51.888;5.186;2022-11-02T17:23:39;7.10;;;3.43;;
18726;SDS011;9492;51.888;5.186;2022-11-02T17:31:17;7.67;;;2.37;;
18726;SDS011;9492;51.888;5.186;2022-11-02T17:33:44;5.13;;;1.93;;
18726;SDS011;9492;51.888;5.186;2022-11-02T17:36:11;7.43;;;2.23;;
18726;SDS011;9492;51.888;5.186;2022-11-02T17:38:38;9.57;;;2.47;;
18726;SDS011;9492;51.888;5.186;2022-11-02T17:41:04;6.73;;;2.17;;
18726;SDS011;9492;51.888;5.186;2022-11-02T17:43:49;11.93;;;2.07;;
18726;SDS011;9492;51.888;5.186;2022-11-02T17:46:15;6.77;;;2.03;;
18726;SDS011;9492;51.888;5.186;2022-11-02T17:48:41;9.47;;;2.03;;
18726;SDS011;9492;51.888;5.186;2022-11-02T17:51:07;5.90;;;2.73;;
18726;SDS011;9492;51.888;5.186;2022-11-02T17:53:34;11.10;;;3.33;;
18726;SDS011;9492;51.888;5.186;2022-11-02T17:56:01;8.97;;;2.73;;
18726;SDS011;9492;51.888;5.186;2022-11-02T17:58:27;8.83;;;2.43;;